Terminal Aerodrome Forecast
Issued by NWS

Home | Current Version | Previous Version | Text Only | Print | Product List | Glossary On
Versions: 1 2 3 4 5 6 7 8 9 10 11 12 13 14 15 16 17 18 19 20 21 22 23 24 25 26 27 28
000
FTUS42 KCAE 191400 AAA
TAFCUB
TAF AMD
KCUB 191444Z 1915/2012 VRB03KT P6SM SCT200
     FM200000 VRB03KT P6SM OVC100
     FM200800 VRB03KT P6SM -RA OVC060=

USA.gov is the U.S. government's official web portal to all federal, state and local government web resources and services.